createdAt,value
2019-03-27T00:01:24.326Z,20.97
2019-03-27T00:06:25.801Z,19.80
2019-03-27T00:11:27.241Z,18.40
2019-03-27T00:16:28.616Z,17.47
2019-03-27T00:21:29.994Z,22.90
2019-03-27T00:26:31.362Z,23.70
2019-03-27T00:31:32.818Z,22.97
2019-03-27T00:36:34.281Z,16.57
2019-03-27T00:41:35.647Z,20.20
2019-03-27T00:46:36.988Z,19.07
2019-03-27T00:51:38.379Z,15.70
2019-03-27T00:56:39.815Z,21.20
2019-03-27T01:01:41.195Z,19.40
2019-03-27T01:06:42.563Z,20.33
2019-03-27T01:11:43.919Z,19.13
2019-03-27T01:16:46.307Z,17.53
2019-03-27T01:21:47.687Z,18.90
2019-03-27T01:26:49.052Z,19.13
2019-03-27T01:31:50.603Z,19.20
2019-03-27T01:36:51.974Z,21.73
2019-03-27T01:41:53.347Z,17.37
2019-03-27T01:46:54.687Z,17.67
2019-03-27T01:51:56.079Z,19.40
2019-03-27T01:56:57.514Z,24.83
2019-03-27T02:01:59.608Z,18.80
2019-03-27T02:07:01.017Z,19.27
2019-03-27T02:12:02.555Z,17.70
2019-03-27T02:17:03.987Z,20.33
2019-03-27T02:22:09.935Z,20.60
2019-03-27T02:27:11.397Z,18.13
2019-03-27T02:32:12.908Z,23.93
2019-03-27T02:37:14.298Z,18.20
2019-03-27T02:42:15.741Z,20.67
2019-03-27T02:47:17.127Z,19.17
2019-03-27T02:52:18.556Z,17.23
2019-03-27T02:57:19.960Z,26.50
2019-03-27T03:02:21.389Z,18.43
2019-03-27T03:07:22.773Z,20.23
2019-03-27T03:12:24.149Z,20.37
2019-03-27T03:17:25.605Z,21.83
2019-03-27T03:22:27.055Z,17.97
2019-03-27T03:27:28.414Z,19.40
2019-03-27T03:32:29.922Z,18.03
2019-03-27T03:37:31.271Z,19.27
2019-03-27T03:42:32.641Z,22.90
2019-03-27T03:47:33.999Z,23.23
2019-03-27T03:52:35.443Z,19.60
2019-03-27T03:57:37.016Z,21.23
2019-03-27T04:02:39.302Z,22.00
2019-03-27T04:07:40.684Z,19.87
2019-03-27T04:12:42.056Z,18.17
2019-03-27T04:17:43.389Z,22.93
2019-03-27T04:22:44.742Z,19.70
2019-03-27T04:27:48.587Z,24.00
2019-03-27T04:32:50.261Z,22.53
2019-03-27T04:37:51.638Z,24.70
2019-03-27T04:42:52.966Z,19.73
2019-03-27T04:47:54.353Z,21.23
2019-03-27T04:52:55.799Z,22.90
2019-03-27T04:57:57.382Z,20.80
2019-03-27T05:02:58.734Z,23.63
2019-03-27T05:08:00.156Z,19.57
2019-03-27T05:13:01.566Z,18.63
2019-03-27T05:18:03.075Z,20.00
2019-03-27T05:23:04.432Z,22.00
2019-03-27T05:28:05.887Z,18.10
2019-03-27T05:33:07.215Z,20.37
2019-03-27T05:38:08.616Z,22.13
2019-03-27T05:43:09.955Z,19.73
2019-03-27T05:48:11.346Z,23.27
2019-03-27T05:53:12.770Z,20.03
2019-03-27T05:58:14.175Z,19.43
2019-03-27T06:03:15.504Z,20.37
2019-03-27T06:08:16.908Z,25.03
2019-03-27T06:13:18.268Z,21.20
2019-03-27T06:18:19.631Z,20.87
2019-03-27T06:23:20.949Z,20.27
2019-03-27T06:28:22.355Z,18.97
2019-03-27T06:33:23.720Z,15.77
2019-03-27T06:38:25.075Z,19.03
2019-03-27T06:43:26.456Z,19.43
2019-03-27T06:48:27.907Z,16.53
2019-03-27T06:53:29.251Z,17.43
2019-03-27T06:58:31.359Z,16.20
2019-03-27T07:03:33.398Z,16.90
2019-03-27T07:08:37.142Z,22.77
2019-03-27T07:13:38.600Z,15.53
2019-03-27T07:18:40.686Z,16.53
2019-03-27T07:23:42.126Z,15.20
2019-03-27T07:28:43.539Z,23.10
2019-03-27T07:33:44.875Z,16.00
2019-03-27T07:38:46.273Z,15.03
2019-03-27T07:43:47.723Z,22.03
2019-03-27T07:48:54.207Z,13.87
2019-03-27T07:53:52.417Z,14.07
2019-03-27T07:58:53.848Z,17.73
2019-03-27T08:03:55.269Z,17.77
2019-03-27T08:08:56.704Z,14.87
2019-03-27T08:13:58.100Z,16.73
2019-03-27T08:19:07.403Z,13.13
2019-03-27T08:24:02.867Z,12.87
2019-03-27T08:29:04.414Z,15.07
2019-03-27T08:34:05.879Z,19.30
2019-03-27T08:39:07.423Z,13.40
2019-03-27T08:44:08.818Z,12.73
2019-03-27T08:49:21.266Z,14.80
2019-03-27T08:54:13.494Z,13.60
2019-03-27T08:59:14.837Z,9.93
2019-03-27T09:04:16.239Z,14.73
2019-03-27T09:09:17.851Z,15.00
2019-03-27T09:14:19.252Z,11.23
2019-03-27T09:19:34.612Z,7.37
2019-03-27T09:24:23.934Z,6.10
2019-03-27T09:29:25.355Z,10.07
2019-03-27T09:34:26.834Z,7.73
2019-03-27T09:39:28.207Z,8.13
2019-03-27T09:44:29.610Z,7.83
2019-03-27T09:49:31.037Z,7.83
2019-03-27T09:54:32.387Z,8.73
2019-03-27T09:59:33.721Z,6.83
2019-03-27T10:04:35.094Z,5.63
2019-03-27T10:09:36.481Z,6.83
2019-03-27T10:14:37.812Z,6.73
2019-03-27T10:19:39.247Z,10.27
2019-03-27T10:24:40.563Z,5.47
2019-03-27T10:29:41.947Z,7.00
2019-03-27T10:34:43.323Z,8.60
2019-03-27T10:39:44.658Z,6.60
2019-03-27T10:44:46.083Z,3.90
2019-03-27T10:49:47.494Z,5.40
2019-03-27T10:54:48.940Z,6.63
2019-03-27T10:59:50.264Z,7.17
2019-03-27T11:04:51.712Z,5.27
2019-03-27T11:09:53.067Z,10.10
2019-03-27T11:14:54.428Z,7.27
2019-03-27T11:19:55.812Z,7.13
2019-03-27T11:24:57.155Z,7.67
2019-03-27T11:29:58.505Z,6.83
2019-03-27T11:35:00.356Z,9.70
2019-03-27T11:40:03.650Z,5.60
2019-03-27T11:45:06.476Z,8.87
2019-03-27T11:50:09.130Z,8.50
2019-03-27T11:55:10.778Z,12.07
2019-03-27T12:00:12.823Z,7.07
2019-03-27T12:05:14.330Z,7.03
2019-03-27T12:10:15.863Z,8.57
2019-03-27T12:15:36.923Z,10.23
2019-03-27T12:20:38.807Z,6.60
2019-03-27T12:25:40.587Z,8.47
2019-03-27T12:30:42.297Z,9.50
2019-03-27T12:35:44.245Z,6.10
2019-03-27T12:40:45.984Z,8.57
2019-03-27T12:45:47.587Z,6.97
2019-03-27T12:50:49.336Z,11.10
2019-03-27T12:55:51.103Z,10.53
2019-03-27T13:00:53.334Z,5.80
2019-03-27T13:05:55.102Z,9.27
2019-03-27T13:10:56.880Z,6.47
2019-03-27T13:15:58.312Z,8.00
2019-03-27T13:20:59.783Z,3.90
2019-03-27T13:26:01.226Z,6.50
2019-03-27T13:31:02.574Z,5.23
2019-03-27T13:36:05.432Z,6.47
2019-03-27T13:41:06.862Z,4.50
2019-03-27T13:46:08.240Z,5.23
2019-03-27T13:51:09.605Z,2.07
2019-03-27T13:56:11.169Z,3.90
2019-03-27T14:01:13.066Z,3.10
2019-03-27T14:06:14.526Z,3.00
2019-03-27T14:11:16.040Z,3.03
2019-03-27T14:16:17.433Z,3.53
2019-03-27T14:21:18.819Z,4.70
2019-03-27T14:26:20.158Z,5.17
2019-03-27T14:31:21.535Z,4.40
2019-03-27T14:36:22.975Z,2.63
2019-03-27T14:41:24.456Z,6.93
2019-03-27T14:46:25.897Z,4.27
2019-03-27T14:51:27.427Z,4.00
2019-03-27T14:56:29.705Z,4.13
2019-03-27T15:01:31.177Z,4.17
2019-03-27T15:06:32.583Z,2.67
2019-03-27T15:11:33.985Z,7.63
2019-03-27T15:16:35.419Z,5.13
2019-03-27T15:21:36.830Z,3.13
2019-03-27T15:26:38.165Z,7.27
2019-03-27T15:31:39.539Z,3.63
2019-03-27T15:36:40.974Z,5.53
2019-03-27T15:41:42.326Z,5.40
2019-03-27T15:46:43.699Z,3.03
2019-03-27T15:51:45.157Z,4.90
2019-03-27T15:56:46.678Z,4.23
2019-03-27T16:01:48.234Z,3.77
2019-03-27T16:06:49.573Z,5.50
2019-03-27T16:11:50.962Z,6.40
2019-03-27T16:17:12.046Z,4.00
2019-03-27T16:21:55.624Z,4.63
2019-03-27T16:27:04.421Z,6.70
2019-03-27T16:32:00.707Z,3.40
2019-03-27T16:37:02.072Z,4.70
2019-03-27T16:42:03.545Z,5.27
2019-03-27T16:47:05.117Z,5.57
2019-03-27T16:52:06.456Z,4.07
2019-03-27T16:57:07.808Z,5.37
2019-03-27T17:02:09.133Z,4.80
2019-03-27T17:07:10.489Z,3.07
2019-03-27T17:12:11.912Z,4.13
2019-03-27T17:17:13.394Z,4.67
2019-03-27T17:22:19.773Z,4.30
2019-03-27T17:27:17.977Z,4.80
2019-03-27T17:32:19.418Z,7.10
2019-03-27T17:37:20.816Z,7.33
2019-03-27T17:42:22.123Z,6.30
2019-03-27T17:47:23.740Z,9.63
2019-03-27T17:52:25.094Z,7.67
2019-03-27T17:57:26.445Z,9.47
2019-03-27T18:02:27.866Z,5.17
2019-03-27T18:07:29.271Z,7.47
2019-03-27T18:12:30.620Z,6.03
2019-03-27T18:17:32.106Z,10.50
2019-03-27T18:22:33.486Z,7.87
2019-03-27T18:27:34.814Z,9.00
2019-03-27T18:32:36.238Z,7.70
2019-03-27T18:37:37.659Z,7.40
2019-03-27T18:42:39.124Z,6.50
2019-03-27T18:47:40.542Z,7.03
2019-03-27T18:52:42.061Z,9.97
2019-03-27T18:57:43.412Z,8.73
2019-03-27T19:02:44.782Z,6.50
2019-03-27T19:07:46.175Z,10.30
2019-03-27T19:12:47.515Z,9.87
2019-03-27T19:17:48.903Z,9.73
2019-03-27T19:22:50.242Z,5.60
2019-03-27T19:27:51.579Z,10.83
2019-03-27T19:32:53.100Z,10.30
2019-03-27T19:37:54.439Z,6.73
2019-03-27T19:42:55.861Z,8.53
2019-03-27T19:47:57.413Z,8.77
2019-03-27T19:52:58.764Z,12.43
2019-03-27T19:58:00.111Z,9.10
2019-03-27T20:03:01.560Z,8.27
2019-03-27T20:08:04.158Z,6.77
2019-03-27T20:13:05.520Z,7.73
2019-03-27T20:18:06.901Z,12.67
2019-03-27T20:23:14.787Z,9.40
2019-03-27T20:28:11.653Z,11.07
2019-03-27T20:33:13.044Z,6.87
2019-03-27T20:38:14.414Z,6.93
2019-03-27T20:43:15.784Z,9.17
2019-03-27T20:48:17.249Z,10.83
2019-03-27T20:53:18.686Z,5.80
2019-03-27T20:58:20.032Z,8.77
2019-03-27T21:03:21.431Z,13.50
2019-03-27T21:08:22.790Z,9.23
2019-03-27T21:13:24.156Z,7.43
2019-03-27T21:18:25.518Z,10.00
2019-03-27T21:23:26.903Z,12.77
2019-03-27T21:28:28.225Z,13.53
2019-03-27T21:33:29.630Z,10.60
2019-03-27T21:38:30.996Z,9.50
2019-03-27T21:43:32.440Z,9.53
2019-03-27T21:48:33.813Z,12.30
2019-03-27T21:53:35.181Z,8.90
2019-03-27T21:58:36.531Z,7.90
2019-03-27T22:03:37.878Z,7.97
2019-03-27T22:08:39.307Z,8.20
2019-03-27T22:13:40.710Z,8.03
2019-03-27T22:18:42.282Z,6.27
2019-03-27T22:23:43.637Z,7.70
2019-03-27T22:28:44.977Z,7.03
2019-03-27T22:33:46.308Z,6.73
2019-03-27T22:38:47.746Z,7.80
2019-03-27T22:43:49.119Z,8.33
2019-03-27T22:48:50.465Z,6.37
2019-03-27T22:53:51.841Z,11.80
2019-03-27T22:58:53.165Z,8.30
2019-03-27T23:03:54.612Z,7.07
2019-03-27T23:08:56.487Z,8.33
2019-03-27T23:13:57.889Z,9.37
2019-03-27T23:18:59.380Z,7.77
2019-03-27T23:24:00.739Z,8.67
2019-03-27T23:29:02.222Z,10.13
2019-03-27T23:34:03.653Z,8.77
2019-03-27T23:39:06.554Z,9.50
2019-03-27T23:44:07.922Z,8.30
2019-03-27T23:49:09.304Z,10.27
2019-03-27T23:54:10.649Z,8.03
2019-03-27T23:59:11.981Z,12.50
